Pagrindinis puslapis
METAR-TAF:

METAR-TAF

Oro uostai :

Niamėjus, Nigeris

platuma: 13-29N, ilguma: 002-10E, Aukštis: 223 m

Dabartinis oras

Ataskaita buvo paskelbta 1 valandą ir 1 minutes, ne 04:00 UTC
Vėjas 7 kt iš Rytų
Temperatūra 20°C
Drėgmė 12%
Slėgis 1014 hPa
Matomumas: 3500 m
dulkės

METAR: DRRN 280400Z 08007KT 3500 DU NSC 20/M10 Q1014 NOSIG

Laikas: 06:01 (05:01 UTC)

Prognozė

Ataskaita buvo paskelbta 6 valandos ir 1 minutes, ne 23:00 UTC
Prognozė galioja nuo 28 metu 00 UTC su 29 metu 06 UTC
Vėjas 5 kt iš Šiaurės/Šiaurės Rytų
Matomumas: 3000 m
dulkės
Tapsmas
nuo 28 metu 08 UTC su 28 metu 10 UTC
Vėjas 10 kt iš Rytų
Tapsmas
nuo 28 metu 10 UTC su 28 metu 12 UTC
Matomumas: 6000 m

TAF: DRRN 272300Z 2800/2906 03005KT 3000 DU NSC BECMG 2808/2810 09010KT BECMG 2810/2812 6000 NSW

Orai ataskaitas ir orų prognozės (METAR, TAF).

turimą stotys yra geltonos ir raudonos taškus žemėlapyje.

Perkelti pele per norėdami pamatyti stoties vardą.

Tada spustelėkite, norėdami matyti oro stebėjimo ir prognozės.

Norėdami pakeisti žemėlapį: spustelėkite ant žalios mygtukų su juodo kryžiaus žemyn,; žalią mygtuką su brūkšneliu, jei norite nutolinti; arba žalių rodyklių gretimoms žemėlapius.


METAR-TAF: